Time;durP1;ratioP1;P1;durP2;ratioP2;P2;SDS_P1;SDS_P2;PMS_P1;PMS_P2;Temp;Humidity;BMP_temperature;BMP_pressure;BME280_temperature;BME280_humidity;BME280_pressure;Samples;Min_cycle;Max_cycle;Signal;HPM_P1;HPM_P2
2022/05/22 00:00:28;;;;;;;19.45;6.75;;;8.40;99.90;;;;;;5009566;28;20500;-85
2022/05/22 00:02:54;;;;;;;19.42;6.80;;;8.40;99.90;;;;;;5046737;28;20052;-83
2022/05/22 00:05:22;;;;;;;21.42;7.97;;;8.50;99.90;;;;;;5013203;28;20045;-83
2022/05/22 00:07:47;;;;;;;21.63;7.85;;;8.40;99.90;;;;;;5012887;28;20669;-84
2022/05/22 00:10:13;;;;;;;15.60;7.38;;;8.40;99.90;;;;;;5030338;28;20072;-83
2022/05/22 00:12:40;;;;;;;17.17;6.78;;;8.40;99.90;;;;;;5033078;28;20117;-83
2022/05/22 00:15:08;;;;;;;20.88;8.02;;;8.40;99.90;;;;;;5044677;28;20103;-83
2022/05/22 00:17:33;;;;;;;17.58;7.88;;;8.40;99.90;;;;;;5030790;28;20124;-83
2022/05/22 00:19:59;;;;;;;15.85;6.95;;;8.40;99.90;;;;;;5029721;28;20128;-83
2022/05/22 00:22:25;;;;;;;14.82;6.72;;;8.40;99.90;;;;;;4978316;28;20045;-83
2022/05/22 00:24:52;;;;;;;15.88;6.93;;;8.40;99.90;;;;;;5031950;28;20137;-83
2022/05/22 00:27:18;;;;;;;16.58;7.25;;;8.40;99.90;;;;;;5030611;28;20494;-83
2022/05/22 00:29:44;;;;;;;20.40;7.38;;;8.40;99.90;;;;;;4995379;28;20052;-83
2022/05/22 00:32:10;;;;;;;14.70;6.40;;;8.30;99.90;;;;;;5003904;28;20045;-83
2022/05/22 00:34:37;;;;;;;16.13;7.30;;;8.40;99.90;;;;;;5016757;28;20053;-82
2022/05/22 00:37:03;;;;;;;13.75;6.53;;;8.20;99.90;;;;;;5019725;28;20080;-83
2022/05/22 00:39:29;;;;;;;17.33;6.93;;;8.10;99.90;;;;;;5009197;28;20521;-83
2022/05/22 00:41:57;;;;;;;16.80;6.25;;;8.10;99.90;;;;;;5011600;28;20049;-83
2022/05/22 00:44:23;;;;;;;12.98;6.10;;;8.00;99.90;;;;;;5028417;28;20566;-83
2022/05/22 00:46:50;;;;;;;15.02;7.03;;;8.00;99.90;;;;;;5029585;28;20045;-83
2022/05/22 00:49:29;;;;;;;15.95;7.57;;;8.00;99.90;;;;;;5027083;28;20467;-83
2022/05/22 00:52:00;;;;;;;20.05;7.18;;;8.00;99.90;;;;;;5059546;28;20053;-83
2022/05/22 00:54:47;;;;;;;15.45;7.32;;;7.90;99.90;;;;;;5015747;28;20057;-82
2022/05/22 00:57:23;;;;;;;17.02;8.02;;;7.90;99.90;;;;;;5030502;28;20059;-82
2022/05/22 00:59:53;;;;;;;19.75;7.15;;;7.90;99.90;;;;;;5045370;28;20088;-82
2022/05/22 01:02:19;;;;;;;19.98;7.18;;;7.90;99.90;;;;;;5061030;28;20108;-82
2022/05/22 01:04:48;;;;;;;14.27;7.30;;;7.90;99.90;;;;;;5026457;28;20042;-83
2022/05/22 01:07:14;;;;;;;15.18;6.65;;;7.90;99.90;;;;;;5033136;28;20075;-83
2022/05/22 01:09:40;;;;;;;11.18;6.13;;;7.90;99.90;;;;;;5029020;28;20064;-83
2022/05/22 01:12:10;;;;;;;12.93;7.68;;;7.90;99.90;;;;;;5015890;28;20049;-83
2022/05/22 01:14:36;;;;;;;15.82;7.55;;;8.00;99.90;;;;;;5042693;28;20457;-84
2022/05/22 01:17:04;;;;;;;16.02;6.43;;;8.00;99.90;;;;;;4997026;28;20053;-83
2022/05/22 01:19:30;;;;;;;16.02;6.97;;;7.90;99.90;;;;;;5018198;28;20143;-83
2022/05/22 01:22:05;;;;;;;16.65;7.30;;;7.80;99.90;;;;;;4994957;28;20053;-83
2022/05/22 01:24:31;;;;;;;15.95;6.90;;;7.80;99.90;;;;;;5027544;28;20077;-83
2022/05/22 01:27:01;;;;;;;18.95;8.13;;;7.70;99.90;;;;;;5031958;28;20157;-83
2022/05/22 01:29:27;;;;;;;17.98;7.85;;;7.70;99.90;;;;;;5028674;28;20048;-83
2022/05/22 01:31:52;;;;;;;15.77;7.78;;;7.70;99.90;;;;;;5029318;28;20071;-83
2022/05/22 01:34:18;;;;;;;17.38;7.38;;;7.60;99.90;;;;;;5026783;28;20117;-83
2022/05/22 01:36:44;;;;;;;13.98;7.03;;;7.60;99.90;;;;;;5027825;28;20163;-83
2022/05/22 01:39:10;;;;;;;16.42;7.97;;;7.60;99.90;;;;;;5027737;28;20041;-83
2022/05/22 01:41:37;;;;;;;13.43;8.40;;;7.60;99.90;;;;;;5029078;28;20049;-83
2022/05/22 01:44:03;;;;;;;16.30;9.05;;;7.50;99.90;;;;;;5025587;28;20062;-83
2022/05/22 01:46:29;;;;;;;20.50;8.75;;;7.50;99.90;;;;;;5026407;28;20053;-83
2022/05/22 01:48:56;;;;;;;13.02;5.97;;;7.40;99.90;;;;;;5013181;28;20033;-82
2022/05/22 01:51:23;;;;;;;7.22;4.40;;;7.40;99.90;;;;;;5031642;28;20096;-82
2022/05/22 01:53:49;;;;;;;13.60;6.40;;;7.30;99.90;;;;;;5026615;28;20163;-83
2022/05/22 01:56:15;;;;;;;15.00;6.32;;;7.30;99.90;;;;;;5025945;28;20148;-83
2022/05/22 01:58:40;;;;;;;22.70;8.80;;;7.30;99.90;;;;;;5013204;28;20053;-85
2022/05/22 02:01:08;;;;;;;13.38;7.63;;;7.30;99.90;;;;;;4995985;28;20091;-83
2022/05/22 02:03:34;;;;;;;16.85;7.88;;;7.40;99.90;;;;;;5044015;28;20053;-84
2022/05/22 02:05:59;;;;;;;17.02;7.90;;;7.30;99.90;;;;;;5022676;28;20120;-83
2022/05/22 02:08:26;;;;;;;22.20;8.70;;;7.40;99.90;;;;;;4996051;28;20133;-83
2022/05/22 02:11:02;;;;;;;18.92;8.15;;;7.40;99.90;;;;;;5002246;28;20053;-83
2022/05/22 02:13:31;;;;;;;12.57;5.57;;;7.40;99.90;;;;;;5011420;28;20049;-83
2022/05/22 02:15:57;;;;;;;11.57;5.13;;;7.40;99.90;;;;;;5026720;28;20057;-83
2022/05/22 02:18:23;;;;;;;8.02;4.55;;;7.40;99.90;;;;;;5006787;28;20069;-84
2022/05/22 02:20:49;;;;;;;7.25;3.30;;;7.40;99.90;;;;;;5004638;28;20490;-83
2022/05/22 02:23:17;;;;;;;5.75;2.97;;;7.30;99.90;;;;;;5026952;28;20056;-82
2022/05/22 02:25:46;;;;;;;5.68;3.15;;;7.40;99.90;;;;;;5029099;28;20461;-82
2022/05/22 02:28:14;;;;;;;5.28;3.05;;;7.30;99.90;;;;;;5028170;28;20049;-82
2022/05/22 02:30:43;;;;;;;8.38;3.08;;;7.30;99.90;;;;;;5029666;28;20084;-82
2022/05/22 02:33:10;;;;;;;5.57;3.38;;;7.20;99.90;;;;;;5011569;28;20088;-83
2022/05/22 02:35:36;;;;;;;7.15;3.50;;;7.20;99.90;;;;;;5012625;28;20049;-82
2022/05/22 02:38:02;;;;;;;7.95;4.28;;;7.20;99.90;;;;;;4995134;28;20180;-83
2022/05/22 02:40:30;;;;;;;9.68;4.00;;;7.10;99.90;;;;;;5032367;28;20124;-83
2022/05/22 02:42:56;;;;;;;7.03;3.83;;;7.30;99.90;;;;;;5029465;28;20047;-83
2022/05/22 02:45:26;;;;;;;12.18;4.85;;;7.20;99.90;;;;;;5026707;28;20057;-83
2022/05/22 02:47:52;;;;;;;6.22;4.53;;;7.10;99.90;;;;;;5031257;28;20081;-83
2022/05/22 02:50:21;;;;;;;8.30;4.43;;;7.10;99.90;;;;;;5035824;28;20053;-82
2022/05/22 02:52:47;;;;;;;8.20;4.20;;;7.10;99.90;;;;;;5034904;28;20049;-82
2022/05/22 02:55:13;;;;;;;5.18;3.75;;;7.10;99.90;;;;;;5023466;28;20057;-82
2022/05/22 02:57:40;;;;;;;3.50;3.17;;;7.10;99.90;;;;;;4994873;28;20095;-83
2022/05/22 03:00:10;;;;;;;4.47;3.47;;;7.10;99.90;;;;;;5025876;28;20045;-82
2022/05/22 03:02:36;;;;;;;7.45;3.80;;;7.10;99.90;;;;;;5042643;28;20096;-83
2022/05/22 03:05:03;;;;;;;5.20;3.47;;;7.10;99.90;;;;;;5028060;28;20045;-83
2022/05/22 03:07:28;;;;;;;5.15;3.00;;;7.00;99.90;;;;;;5011278;28;20153;-83
2022/05/22 03:09:54;;;;;;;5.30;2.83;;;7.00;99.90;;;;;;5025107;28;20451;-83
2022/05/22 03:12:22;;;;;;;5.88;3.40;;;7.00;99.90;;;;;;5008588;28;20129;-83
2022/05/22 03:14:54;;;;;;;8.50;4.15;;;6.90;99.90;;;;;;5028774;28;20060;-82
2022/05/22 03:17:21;;;;;;;10.30;4.72;;;6.90;99.90;;;;;;5027674;28;20065;-82
2022/05/22 03:19:47;;;;;;;6.15;4.57;;;6.80;99.90;;;;;;5028203;28;20056;-82
2022/05/22 03:22:13;;;;;;;6.10;4.18;;;6.80;99.90;;;;;;4994338;28;20045;-83
2022/05/22 03:24:40;;;;;;;9.10;5.05;;;6.90;99.90;;;;;;5029642;28;20117;-83
2022/05/22 03:27:10;;;;;;;9.43;6.00;;;6.70;99.90;;;;;;5026643;28;20471;-82
2022/05/22 03:29:37;;;;;;;10.48;4.60;;;6.70;99.90;;;;;;5029467;28;20037;-83
2022/05/22 03:32:03;;;;;;;12.63;4.63;;;6.70;99.90;;;;;;5025645;28;20045;-83
2022/05/22 03:34:29;;;;;;;8.02;4.82;;;6.70;99.90;;;;;;5004696;28;20049;-82
2022/05/22 03:36:55;;;;;;;9.77;5.38;;;6.70;99.90;;;;;;5016320;28;20051;-84
2022/05/22 03:39:21;;;;;;;12.68;5.90;;;6.80;99.90;;;;;;5012780;28;20050;-82
2022/05/22 03:41:47;;;;;;;9.40;5.28;;;6.80;99.90;;;;;;5026869;28;20068;-82
2022/05/22 03:44:13;;;;;;;7.35;4.75;;;6.70;99.90;;;;;;5021078;28;20046;-82
2022/05/22 03:46:39;;;;;;;9.25;5.30;;;6.70;99.90;;;;;;4998198;28;20116;-83
2022/05/22 03:49:05;;;;;;;11.70;5.55;;;6.70;99.90;;;;;;5033501;28;20042;-82
2022/05/22 03:51:31;;;;;;;8.05;4.75;;;6.70;99.90;;;;;;5016345;28;20124;-82
2022/05/22 03:53:58;;;;;;;11.63;5.50;;;6.60;99.90;;;;;;4993174;28;20132;-82
2022/05/22 03:56:24;;;;;;;14.90;6.05;;;6.70;99.90;;;;;;5030705;28;20056;-82
2022/05/22 03:58:50;;;;;;;11.00;5.88;;;6.70;99.90;;;;;;5029517;28;20045;-82
2022/05/22 04:01:15;;;;;;;11.68;6.55;;;6.70;99.90;;;;;;5038273;28;20100;-83
2022/05/22 04:03:41;;;;;;;13.63;7.05;;;6.70;99.90;;;;;;5031349;28;20122;-83
2022/05/22 04:06:09;;;;;;;15.75;7.50;;;6.80;99.90;;;;;;4997811;28;20056;-82
2022/05/22 04:08:35;;;;;;;12.40;6.60;;;6.80;99.90;;;;;;5046162;28;20053;-83
2022/05/22 04:11:20;;;;;;;15.40;7.60;;;6.90;99.90;;;;;;5015575;28;20053;-83
2022/05/22 04:13:47;;;;;;;17.10;7.05;;;6.90;99.90;;;;;;5043268;28;20037;-82
2022/05/22 04:16:12;;;;;;;13.23;6.60;;;6.90;99.90;;;;;;4998382;28;20132;-82
2022/05/22 04:18:38;;;;;;;11.68;7.18;;;6.90;99.90;;;;;;5046902;28;20121;-83
2022/05/22 04:21:04;;;;;;;16.40;7.80;;;7.00;99.90;;;;;;5014441;28;20042;-83
2022/05/22 04:26:15;;;;;;;18.25;8.43;;;7.10;99.90;;;;;;5029135;28;20087;-84
2022/05/22 04:28:40;;;;;;;14.35;7.57;;;7.40;99.90;;;;;;5009681;28;20076;-82
2022/05/22 04:31:06;;;;;;;15.55;8.73;;;7.20;99.90;;;;;;5033799;28;20050;-82
2022/05/22 04:33:32;;;;;;;16.15;7.68;;;7.30;99.90;;;;;;5031647;28;20045;-83
2022/05/22 04:35:59;;;;;;;16.55;7.90;;;7.30;99.90;;;;;;5029400;28;20053;-82
2022/05/22 04:38:25;;;;;;;18.73;8.30;;;7.40;99.90;;;;;;5028263;28;20120;-83
2022/05/22 04:40:56;;;;;;;12.95;7.75;;;7.40;99.90;;;;;;5029280;28;20107;-83
2022/05/22 04:43:22;;;;;;;16.33;8.25;;;7.50;99.90;;;;;;5013003;28;20057;-82
2022/05/22 04:45:50;;;;;;;13.77;8.05;;;7.50;99.90;;;;;;5012873;28;20345;-81
2022/05/22 04:48:24;;;;;;;18.92;8.27;;;7.60;99.90;;;;;;5024553;28;20054;-82
2022/05/22 04:50:51;;;;;;;17.38;8.60;;;7.60;99.90;;;;;;5059422;28;20037;-83
2022/05/22 04:53:20;;;;;;;20.85;9.48;;;7.60;99.90;;;;;;5000030;28;20085;-82
2022/05/22 04:55:46;;;;;;;21.98;8.95;;;7.70;99.90;;;;;;5005326;28;20045;-82
2022/05/22 04:58:13;;;;;;;18.27;9.05;;;7.70;99.90;;;;;;5027799;28;20108;-82
2022/05/22 05:00:39;;;;;;;13.90;7.32;;;7.80;99.90;;;;;;4994454;28;20034;-83
2022/05/22 05:03:04;;;;;;;13.90;6.55;;;7.90;99.90;;;;;;5014561;28;20123;-82
2022/05/22 05:05:30;;;;;;;13.95;5.95;;;8.00;99.90;;;;;;5045104;28;20401;-82
2022/05/22 05:07:57;;;;;;;10.70;6.35;;;8.00;99.90;;;;;;4994022;28;20103;-81
2022/05/22 05:10:23;;;;;;;9.98;6.32;;;8.00;99.90;;;;;;5012945;28;20076;-82
2022/05/22 05:12:49;;;;;;;11.02;7.22;;;8.00;99.90;;;;;;5044631;28;20128;-83
2022/05/22 05:15:17;;;;;;;17.40;9.57;;;8.10;99.90;;;;;;5014199;28;20132;-82
2022/05/22 05:17:45;;;;;;;21.63;8.52;;;8.20;99.90;;;;;;5010264;28;20411;-83
2022/05/22 05:20:12;;;;;;;20.33;9.43;;;8.30;99.90;;;;;;5027868;28;20045;-83
2022/05/22 05:22:38;;;;;;;19.08;8.85;;;8.30;99.90;;;;;;4984844;28;20058;-82
2022/05/22 05:25:05;;;;;;;26.20;10.25;;;8.30;99.90;;;;;;5012614;28;20044;-82
2022/05/22 05:27:32;;;;;;;24.02;11.40;;;8.40;99.90;;;;;;4999294;28;20524;-82
2022/05/22 05:29:57;;;;;;;24.30;11.70;;;8.50;99.90;;;;;;5028754;28;20084;-82
2022/05/22 05:32:23;;;;;;;20.50;11.57;;;8.60;99.90;;;;;;5011370;28;20068;-83
2022/05/22 05:35:06;;;;;;;28.02;12.60;;;8.80;99.90;;;;;;5016251;28;20037;-82
2022/05/22 05:37:32;;;;;;;27.85;12.65;;;9.00;99.90;;;;;;5026728;28;20042;-83
2022/05/22 05:39:58;;;;;;;22.60;12.18;;;9.10;99.90;;;;;;5028957;28;20483;-82
2022/05/22 05:42:24;;;;;;;31.85;13.60;;;9.20;99.90;;;;;;5027826;28;20050;-83
2022/05/22 05:44:50;;;;;;;27.02;12.35;;;9.50;99.90;;;;;;5011157;28;20045;-82
2022/05/22 05:47:16;;;;;;;32.03;12.98;;;9.50;99.90;;;;;;5016478;28;20087;-83
2022/05/22 05:49:42;;;;;;;27.08;12.80;;;9.80;99.90;;;;;;5026528;28;20132;-83
2022/05/22 05:52:08;;;;;;;28.88;13.15;;;9.90;99.90;;;;;;5014142;28;20040;-83
2022/05/22 05:54:34;;;;;;;27.25;11.35;;;10.10;99.90;;;;;;4993675;28;20652;-83
2022/05/22 05:57:00;;;;;;;25.95;12.85;;;10.20;99.90;;;;;;5000631;28;20056;-82
2022/05/22 05:59:26;;;;;;;24.85;12.65;;;10.40;99.90;;;;;;4993303;28;20045;-83
2022/05/22 06:01:56;;;;;;;29.75;11.73;;;10.50;99.90;;;;;;5004441;28;20408;-84
2022/05/22 06:04:22;;;;;;;24.08;11.10;;;10.50;99.90;;;;;;4996119;28;20092;-84
2022/05/22 06:06:48;;;;;;;24.77;11.50;;;10.70;99.90;;;;;;4993405;28;21249;-84
2022/05/22 06:09:13;;;;;;;21.92;10.30;;;10.90;99.90;;;;;;4998534;28;20045;-85
2022/05/22 06:11:39;;;;;;;26.20;11.00;;;11.00;99.90;;;;;;5015609;28;20451;-84
2022/05/22 06:14:05;;;;;;;24.17;10.30;;;11.30;99.90;;;;;;4994371;28;21209;-84
2022/05/22 06:16:31;;;;;;;18.92;10.05;;;11.50;99.90;;;;;;4978418;28;20091;-84
2022/05/22 06:18:56;;;;;;;19.40;9.18;;;11.70;99.90;;;;;;4977371;28;20096;-83
2022/05/22 06:21:23;;;;;;;18.58;9.35;;;12.00;99.90;;;;;;4991563;28;20132;-84
2022/05/22 06:23:49;;;;;;;21.67;8.98;;;12.30;99.90;;;;;;4992898;28;20072;-84
2022/05/22 06:26:19;;;;;;;21.05;8.50;;;12.60;99.90;;;;;;4995307;28;21785;-83
2022/05/22 06:28:46;;;;;;;18.73;8.00;;;12.80;99.90;;;;;;5010563;28;20057;-84
2022/05/22 06:31:12;;;;;;;15.45;7.78;;;13.10;99.90;;;;;;5022043;28;20056;-83
2022/05/22 06:33:39;;;;;;;18.55;7.38;;;13.30;99.90;;;;;;5010346;28;20089;-83
2022/05/22 06:36:09;;;;;;;15.25;6.82;;;13.60;99.90;;;;;;4978212;28;20593;-83
2022/05/22 06:41:20;;;;;;;13.93;6.07;;;14.00;99.90;;;;;;5028092;28;20151;-83
2022/05/22 06:43:51;;;;;;;12.65;5.88;;;14.10;99.90;;;;;;5029805;28;20136;-83
2022/05/22 06:46:30;;;;;;;14.70;5.53;;;14.40;99.90;;;;;;5032725;28;20060;-83
2022/05/22 06:48:57;;;;;;;14.55;6.65;;;14.70;99.90;;;;;;5023320;28;20056;-84
2022/05/22 06:51:22;;;;;;;11.52;5.32;;;14.90;99.90;;;;;;5007331;28;20049;-84
2022/05/22 06:53:48;;;;;;;15.45;5.40;;;15.10;99.90;;;;;;5008119;28;20080;-84
2022/05/22 06:56:14;;;;;;;14.02;5.10;;;15.20;99.90;;;;;;4978905;28;20080;-84
2022/05/22 06:58:39;;;;;;;14.73;5.75;;;15.20;99.90;;;;;;5006524;28;20229;-85
2022/05/22 07:01:05;;;;;;;14.88;4.70;;;15.20;99.90;;;;;;5045116;28;20556;-84
2022/05/22 07:03:31;;;;;;;12.52;4.20;;;15.50;99.90;;;;;;5022499;28;20084;-83
2022/05/22 07:05:56;;;;;;;12.65;3.90;;;15.70;99.90;;;;;;5047298;28;20045;-83
2022/05/22 07:08:22;;;;;;;11.40;4.78;;;15.90;99.90;;;;;;4999203;28;20049;-85
2022/05/22 07:13:32;;;;;;;10.30;3.47;;;16.30;99.90;;;;;;5006301;28;20096;-84
2022/05/22 07:15:59;;;;;;;12.73;3.92;;;16.30;99.90;;;;;;5015042;28;20081;-83
2022/05/22 07:18:25;;;;;;;12.38;4.03;;;16.60;99.90;;;;;;5012337;28;20061;-85
2022/05/22 07:20:51;;;;;;;11.93;3.85;;;16.90;99.90;;;;;;4996083;28;20048;-83
2022/05/22 07:23:16;;;;;;;14.98;3.92;;;17.30;99.90;;;;;;4997147;28;20038;-83
2022/05/22 07:25:42;;;;;;;10.73;3.42;;;17.60;99.90;;;;;;4980259;28;20050;-84
2022/05/22 07:28:07;;;;;;;11.35;3.30;;;17.80;99.90;;;;;;4987037;28;20052;-83
2022/05/22 07:30:34;;;;;;;9.95;3.35;;;18.10;99.90;;;;;;5028953;28;20499;-83
2022/05/22 07:32:59;;;;;;;12.85;3.40;;;18.30;99.90;;;;;;5029462;28;20092;-83
2022/05/22 07:35:25;;;;;;;9.70;3.40;;;18.40;99.90;;;;;;4980342;28;20085;-83
2022/05/22 07:37:52;;;;;;;12.07;3.80;;;18.50;99.90;;;;;;4995496;28;20053;-83
2022/05/22 07:40:18;;;;;;;10.52;2.92;;;18.50;99.90;;;;;;4996225;28;20050;-84
2022/05/22 07:42:44;;;;;;;9.15;2.97;;;18.60;99.90;;;;;;5006885;28;20502;-84
2022/05/22 07:45:12;;;;;;;11.43;3.22;;;18.70;99.90;;;;;;4983568;28;20079;-84
2022/05/22 07:47:38;;;;;;;8.95;2.78;;;18.60;99.90;;;;;;4999239;28;20041;-84
2022/05/22 07:50:16;;;;;;;11.23;3.08;;;18.60;99.90;;;;;;4999285;28;20136;-83
2022/05/22 07:52:43;;;;;;;9.75;3.30;;;18.90;99.90;;;;;;5014552;28;20045;-83
2022/05/22 07:55:14;;;;;;;9.20;3.15;;;19.20;99.90;;;;;;5015904;28;20084;-84
2022/05/22 07:57:43;;;;;;;7.93;2.58;;;19.50;99.80;;;;;;5031799;28;20064;-84
2022/05/22 08:00:11;;;;;;;11.25;2.95;;;19.90;97.70;;;;;;5015432;28;20564;-84
2022/05/22 08:02:37;;;;;;;9.43;2.47;;;20.20;94.20;;;;;;5015529;28;20061;-84
2022/05/22 08:05:04;;;;;;;9.90;2.92;;;20.20;92.00;;;;;;5015961;28;20060;-84
2022/05/22 08:07:31;;;;;;;11.95;3.13;;;20.10;91.20;;;;;;4983524;28;20037;-83
2022/05/22 08:09:57;;;;;;;9.63;2.85;;;19.50;90.70;;;;;;5015467;28;20049;-84
2022/05/22 08:12:23;;;;;;;9.70;2.50;;;19.00;90.70;;;;;;5032039;28;20141;-84
2022/05/22 08:14:49;;;;;;;9.80;2.50;;;18.50;91.10;;;;;;5031579;28;20394;-83
2022/05/22 08:17:15;;;;;;;11.63;2.50;;;18.00;93.60;;;;;;5015432;28;20046;-84
2022/05/22 08:19:41;;;;;;;8.07;2.80;;;18.20;96.00;;;;;;4998603;28;20049;-83
2022/05/22 08:22:07;;;;;;;7.00;2.60;;;19.10;93.20;;;;;;4998784;28;20045;-84
2022/05/22 08:24:33;;;;;;;7.13;2.17;;;19.80;90.70;;;;;;5030669;28;20052;-85
2022/05/22 08:26:59;;;;;;;7.40;2.13;;;20.40;82.40;;;;;;5015022;28;20041;-84
2022/05/22 08:29:24;;;;;;;7.80;1.50;;;20.90;78.10;;;;;;4998998;28;20482;-84
2022/05/22 08:31:50;;;;;;;5.63;1.52;;;21.30;74.90;;;;;;4982359;28;20045;-84
2022/05/22 08:34:16;;;;;;;10.95;1.95;;;21.90;72.30;;;;;;5015017;28;20485;-84
2022/05/22 08:36:42;;;;;;;7.93;1.90;;;22.40;67.80;;;;;;4998764;28;20057;-84
2022/05/22 08:39:08;;;;;;;6.85;2.28;;;22.50;63.60;;;;;;5031478;28;20049;-84
2022/05/22 08:41:49;;;;;;;6.93;1.70;;;22.90;65.90;;;;;;4998819;28;20049;-84
2022/05/22 08:44:20;;;;;;;7.03;2.17;;;23.30;67.00;;;;;;5031297;28;20512;-84
2022/05/22 08:46:54;;;;;;;6.43;1.77;;;23.70;61.00;;;;;;5031141;28;20057;-84
2022/05/22 08:49:46;;;;;;;5.45;1.60;;;24.30;58.80;;;;;;5031529;28;20045;-85
2022/05/22 08:52:33;;;;;;;7.88;1.65;;;24.80;60.20;;;;;;5014016;28;20148;-84
2022/05/22 08:55:19;;;;;;;5.55;1.70;;;24.70;54.90;;;;;;5030125;28;20053;-85
2022/05/22 09:00:49;;;;;;;8.38;1.88;;;24.30;53.20;;;;;;5030185;28;20053;-84
2022/05/22 09:03:24;;;;;;;4.63;1.42;;;24.70;54.30;;;;;;5029677;28;20112;-84
2022/05/22 09:05:55;;;;;;;6.15;1.70;;;24.70;51.80;;;;;;5010817;28;20042;-84
2022/05/22 09:08:51;;;;;;;7.13;1.42;;;24.30;53.70;;;;;;5011389;28;20053;-84
2022/05/22 09:11:44;;;;;;;5.82;1.58;;;24.10;52.10;;;;;;5002141;28;20068;-84
2022/05/22 09:14:30;;;;;;;7.60;1.65;;;24.20;53.80;;;;;;5001025;28;20646;-84
2022/05/22 09:17:18;;;;;;;7.45;1.42;;;25.10;54.30;;;;;;5048306;28;20061;-83
2022/05/22 09:19:56;;;;;;;4.50;1.30;;;25.50;51.80;;;;;;5062825;28;20052;-84
2022/05/22 09:22:23;;;;;;;7.68;1.60;;;24.80;49.40;;;;;;5047260;28;20045;-85
2022/05/22 09:25:00;;;;;;;5.63;1.55;;;23.70;50.90;;;;;;5063461;28;20104;-84
2022/05/22 09:28:07;;;;;;;8.73;1.52;;;22.80;52.40;;;;;;5030448;28;20053;-83
2022/05/22 09:30:54;;;;;;;7.18;1.58;;;21.90;56.00;;;;;;5029851;28;20085;-84
2022/05/22 09:33:26;;;;;;;5.13;1.30;;;21.20;59.00;;;;;;5030630;28;20060;-83
2022/05/22 09:36:03;;;;;;;6.47;1.58;;;21.00;61.50;;;;;;5029591;28;20084;-85
2022/05/22 09:38:51;;;;;;;6.68;1.67;;;21.90;58.20;;;;;;5030356;28;20451;-84
2022/05/22 09:41:36;;;;;;;9.25;1.58;;;23.50;55.80;;;;;;5030554;28;20792;-85
2022/05/22 09:44:07;;;;;;;5.60;1.52;;;25.00;54.00;;;;;;4993946;28;20096;-84
2022/05/22 09:46:55;;;;;;;7.50;1.88;;;26.00;49.10;;;;;;5010668;28;20096;-84
2022/05/22 09:49:37;;;;;;;7.53;1.45;;;25.50;46.70;;;;;;4994257;28;20046;-85
2022/05/22 09:52:13;;;;;;;9.88;1.45;;;25.30;48.50;;;;;;5002187;28;20053;-85
2022/05/22 09:55:10;;;;;;;7.82;1.45;;;26.60;47.00;;;;;;4998417;28;20140;-85
2022/05/22 09:57:48;;;;;;;4.97;1.23;;;26.40;43.40;;;;;;5017349;28;20057;-84
2022/05/22 10:00:18;;;;;;;5.97;1.70;;;25.30;45.00;;;;;;4996070;28;20127;-84
2022/05/22 10:03:08;;;;;;;5.15;1.30;;;24.20;45.80;;;;;;5016246;28;20077;-83
2022/05/22 10:05:44;;;;;;;5.88;1.75;;;23.40;47.80;;;;;;5003301;28;20048;-84
2022/05/22 10:08:42;;;;;;;5.30;1.65;;;22.70;49.00;;;;;;5018357;28;20523;-84
2022/05/22 10:11:20;;;;;;;6.63;1.23;;;21.90;50.70;;;;;;5012388;28;20041;-84
2022/05/22 10:14:03;;;;;;;7.15;1.42;;;21.50;52.10;;;;;;5048119;28;20053;-84
2022/05/22 10:16:57;;;;;;;5.88;1.35;;;22.00;54.70;;;;;;4998151;28;20073;-84
2022/05/22 10:19:53;;;;;;;6.55;1.55;;;23.80;53.70;;;;;;4988016;28;20473;-83
2022/05/22 10:22:24;;;;;;;6.93;1.30;;;25.30;47.60;;;;;;5015368;28;20056;-85
2022/05/22 10:25:24;;;;;;;5.70;1.50;;;26.50;44.50;;;;;;5000555;28;20411;-85
2022/05/22 10:28:12;;;;;;;3.47;1.15;;;27.70;44.00;;;;;;4999159;28;20049;-85
2022/05/22 10:30:53;;;;;;;8.13;1.15;;;28.10;39.80;;;;;;5037134;28;20483;-84
2022/05/22 10:33:37;;;;;;;6.05;1.30;;;28.40;39.80;;;;;;4998521;28;20060;-85
2022/05/22 10:36:10;;;;;;;5.00;1.02;;;29.10;40.80;;;;;;5013437;28;20137;-91
2022/05/22 10:38:45;;;;;;;4.85;1.30;;;29.80;37.60;;;;;;5039601;28;20056;-83
2022/05/22 10:44:15;;;;;;;4.65;1.15;;;31.00;37.00;;;;;;5028102;28;20679;-83
2022/05/22 10:46:50;;;;;;;4.20;1.00;;;31.80;35.00;;;;;;5012052;28;20089;-84
2022/05/22 10:49:17;;;;;;;5.20;1.67;;;31.90;34.80;;;;;;5027068;28;20053;-83
2022/05/22 10:51:58;;;;;;;5.63;1.23;;;32.00;34.00;;;;;;5011469;28;20037;-83
2022/05/22 10:54:41;;;;;;;4.97;1.08;;;31.10;34.00;;;;;;5006142;28;20482;-82
2022/05/22 10:57:17;;;;;;;6.07;1.20;;;29.60;34.50;;;;;;5028638;28;20479;-82
2022/05/22 10:59:43;;;;;;;4.32;1.30;;;29.20;35.30;;;;;;5012823;28;20045;-84
2022/05/22 11:02:26;;;;;;;5.30;1.45;;;29.50;36.50;;;;;;5028886;28;20483;-83
2022/05/22 11:04:55;;;;;;;4.28;1.40;;;29.30;35.40;;;;;;5012916;28;20045;-83
2022/05/22 11:07:43;;;;;;;3.67;1.20;;;28.30;36.30;;;;;;5012550;28;20068;-82
2022/05/22 11:10:23;;;;;;;3.88;1.20;;;27.20;37.50;;;;;;5028928;28;20061;-83
2022/05/22 11:13:11;;;;;;;6.13;1.20;;;26.00;39.10;;;;;;5012441;28;20646;-82
2022/05/22 11:15:42;;;;;;;6.72;1.23;;;25.00;40.80;;;;;;5029543;28;20072;-83
2022/05/22 11:18:22;;;;;;;5.97;1.27;;;24.10;43.20;;;;;;5028884;28;20107;-83
2022/05/22 11:21:04;;;;;;;5.82;1.52;;;24.00;44.20;;;;;;5028930;28;20438;-83
2022/05/22 11:23:44;;;;;;;3.95;1.35;;;23.70;46.00;;;;;;5012710;28;20451;-83
2022/05/22 11:26:16;;;;;;;4.13;0.98;;;23.10;45.80;;;;;;5012105;28;20045;-83
2022/05/22 11:28:53;;;;;;;4.78;1.20;;;22.60;47.40;;;;;;5029182;28;20061;-82
2022/05/22 11:31:49;;;;;;;6.93;1.20;;;22.30;47.70;;;;;;5012216;28;20072;-82
2022/05/22 11:34:30;;;;;;;4.68;1.15;;;22.40;48.90;;;;;;5012087;28;20049;-83
2022/05/22 11:37:02;;;;;;;4.57;1.02;;;23.60;47.00;;;;;;5028496;28;20057;-83
2022/05/22 11:40:05;;;;;;;8.05;1.73;;;24.00;45.30;;;;;;5020598;28;20061;-83
2022/05/22 11:42:34;;;;;;;5.53;1.40;;;23.90;46.20;;;;;;5048850;28;20549;-85
2022/05/22 11:45:14;;;;;;;5.15;1.45;;;23.50;45.50;;;;;;5017584;28;20041;-84
2022/05/22 11:48:09;;;;;;;6.35;1.73;;;23.10;46.70;;;;;;5030772;28;20509;-83
2022/05/22 11:51:29;;;;;;;9.60;1.90;;;22.80;47.70;;;;;;4992420;28;20049;-84
2022/05/22 11:54:12;;;;;;;5.45;1.00;;;22.70;48.30;;;;;;4972686;28;20094;-84
2022/05/22 11:56:38;;;;;;;5.63;1.25;;;22.60;48.10;;;;;;5000545;28;20128;-83
2022/05/22 11:59:19;;;;;;;4.97;1.67;;;22.50;49.70;;;;;;5015439;28;20132;-84
2022/05/22 12:02:25;;;;;;;3.83;0.95;;;22.50;49.50;;;;;;5032437;28;20095;-84
2022/05/22 12:04:56;;;;;;;5.50;1.15;;;22.50;49.20;;;;;;5003134;28;20542;-85
2022/05/22 12:07:50;;;;;;;3.13;1.00;;;22.50;48.10;;;;;;5014787;28;20053;-84
2022/05/22 12:10:45;;;;;;;6.10;1.38;;;22.50;49.60;;;;;;4999705;28;20083;-83
2022/05/22 12:13:25;;;;;;;6.70;1.30;;;22.50;50.60;;;;;;5013340;28;20758;-83
2022/05/22 12:16:07;;;;;;;3.83;1.02;;;22.60;50.50;;;;;;5032303;28;20045;-83
2022/05/22 12:18:47;;;;;;;6.05;1.25;;;22.70;51.00;;;;;;5047979;28;20052;-83
2022/05/22 12:21:38;;;;;;;5.68;1.27;;;22.80;50.20;;;;;;5015046;28;20418;-83
2022/05/22 12:24:19;;;;;;;5.93;1.30;;;22.90;50.40;;;;;;5047887;28;20056;-83
2022/05/22 12:26:45;;;;;;;3.50;1.10;;;23.60;50.60;;;;;;5041910;28;20348;-84
2022/05/22 12:29:25;;;;;;;5.38;1.27;;;25.70;46.50;;;;;;5042658;28;20107;-85
2022/05/22 12:31:56;;;;;;;3.88;0.90;;;27.30;43.90;;;;;;5035172;28;20127;-85
2022/05/22 12:34:45;;;;;;;5.70;1.20;;;27.50;41.50;;;;;;4995150;28;20058;-85
2022/05/22 12:37:21;;;;;;;5.90;1.23;;;26.90;41.90;;;;;;4995063;28;20059;-85
2022/05/22 12:39:56;;;;;;;;;;;26.00;41.90;;;;;;5012184;28;20049;-84
2022/05/22 12:42:30;;;;;;;4.22;1.08;;;25.30;44.70;;;;;;4994970;28;19974;-84
2022/05/22 12:44:56;;;;;;;4.63;1.15;;;24.80;43.40;;;;;;5005030;28;20548;-84
2022/05/22 12:47:34;;;;;;;6.55;1.52;;;24.30;45.40;;;;;;4984686;28;20045;-86
2022/05/22 12:50:00;;;;;;;5.03;0.95;;;24.00;46.90;;;;;;5007947;28;20450;-85
2022/05/22 12:52:30;;;;;;;5.75;1.48;;;23.90;47.70;;;;;;5002625;28;20180;-85
2022/05/22 12:54:59;;;;;;;5.28;1.45;;;23.80;47.30;;;;;;4993661;28;20139;-85
2022/05/22 12:57:25;;;;;;;6.28;1.75;;;23.80;48.10;;;;;;5022489;28;20094;-85
2022/05/22 12:59:53;;;;;;;5.80;1.13;;;23.80;47.90;;;;;;5008331;28;20041;-85
2022/05/22 13:02:35;;;;;;;5.53;1.27;;;23.90;47.60;;;;;;5019031;28;20040;-85
2022/05/22 13:05:02;;;;;;;4.47;1.20;;;24.20;47.20;;;;;;5024981;28;20142;-87
2022/05/22 13:07:34;;;;;;;3.05;1.00;;;24.20;46.60;;;;;;5014850;28;20045;-84
2022/05/22 13:10:23;;;;;;;5.93;1.45;;;24.40;46.50;;;;;;5015388;28;20041;-86
2022/05/22 13:13:01;;;;;;;1.65;0.65;;;24.60;46.70;;;;;;5015402;28;20041;-84
2022/05/22 13:15:29;;;;;;;4.82;1.20;;;25.00;46.60;;;;;;5009272;28;20049;-85
2022/05/22 13:18:15;;;;;;;5.03;1.10;;;25.50;44.60;;;;;;4997651;28;20057;-84
2022/05/22 13:20:49;;;;;;;5.43;1.27;;;26.20;44.70;;;;;;4999072;28;20041;-84